Alt de la Fuente, Puerto Rico
Current Conditions -  °F | °C
As of 1:56 AM on Sunday 21 Dec 2014 (Local Time) from TJSJ Reporting Station
Few Clouds Few Clouds  
Wind Chill: 26°   Ceiling: Unl
Heat Index: 27°   Visibility: 10mi
Dew Point: 21°   Wind: 12mph
Humidity: 76%   Direction: 80°E
Pressure: 30.03"   Gusts: NA
Location:  18.2351°N, 66.0374°W
Report Text: TJSJ 210556Z 08010KT 10SM FEW034 26/21 A3003 RMK AO2 SLP169 T02560211 10267 20250 58007
Loading
Personal Weather Stations






























Interactive Weather Map New forecast layout! Learn more

10-Day Weather Forecast

Advertisements
Track Severe Weather on mobile